Time;durP1;ratioP1;P1;durP2;ratioP2;P2;SDS_P1;SDS_P2;PMS_P1;PMS_P2;Temp;Humidity;BMP_temperature;BMP_pressure;BME280_temperature;BME280_humidity;BME280_pressure;Samples;Min_cycle;Max_cycle;Signal;HPM_P1;HPM_P2
2022/12/15 00:41:01;;;;;;;31.15;19.48;;;;;;;;;;5047365;28;20092;-70
2022/12/15 00:43:28;;;;;;;35.90;19.25;;;;;;;;;;5051280;28;20037;-72
2022/12/15 00:48:39;;;;;;;35.42;19.17;;;;;;;;;;5047699;28;20038;-70
2022/12/15 00:51:05;;;;;;;35.60;17.98;;;;;;;;;;5048909;28;20905;-69
2022/12/15 01:20:59;;;;;;;33.15;18.77;;;;;;;;;;5046422;28;20045;-70
2022/12/15 01:23:25;;;;;;;33.60;18.40;;;;;;;;;;5046198;28;20037;-69
2022/12/15 01:25:52;;;;;;;33.05;18.95;;;;;;;;;;5038403;28;20116;-70
2022/12/15 01:28:18;;;;;;;32.50;19.75;;;;;;;;;;5042324;28;20661;-69
2022/12/15 01:30:45;;;;;;;32.70;19.67;;;;;;;;;;5049470;28;20056;-69
2022/12/15 01:33:11;;;;;;;31.90;18.58;;;;;;;;;;5047158;28;20083;-69
2022/12/15 01:35:37;;;;;;;29.95;18.15;;;;;;;;;;5029519;28;20048;-69
2022/12/15 01:38:03;;;;;;;34.90;19.15;;;;;;;;;;5043398;28;20103;-73
2022/12/15 01:40:44;;;;;;;31.90;18.13;;;;;;;;;;5049281;28;20132;-69
2022/12/15 01:43:15;;;;;;;33.90;19.65;;;;;;;;;;5046724;28;20052;-72
2022/12/15 01:45:47;;;;;;;32.88;18.30;;;;;;;;;;5044651;28;20060;-70
2022/12/15 01:48:17;;;;;;;36.95;19.08;;;;;;;;;;5044865;28;20412;-72
2022/12/15 01:50:45;;;;;;;30.17;18.15;;;;;;;;;;5048598;28;20049;-69
2022/12/15 01:53:11;;;;;;;34.63;18.65;;;;;;;;;;5042551;28;20053;-69
2022/12/15 01:55:38;;;;;;;30.63;18.98;;;;;;;;;;5026012;28;20148;-69
2022/12/15 01:58:06;;;;;;;30.27;18.35;;;;;;;;;;5046446;28;20667;-69
2022/12/15 02:00:32;;;;;;;33.10;19.48;;;;;;;;;;5047862;28;20037;-69
2022/12/15 02:02:58;;;;;;;31.85;18.48;;;;;;;;;;5044919;28;20068;-69
2022/12/15 02:05:24;;;;;;;31.00;18.48;;;;;;;;;;5045598;28;20053;-71
2022/12/15 02:07:50;;;;;;;33.15;18.45;;;;;;;;;;5050950;28;20048;-69
2022/12/15 02:10:16;;;;;;;34.63;16.92;;;;;;;;;;5028326;28;20669;-69
2022/12/15 02:12:45;;;;;;;32.08;18.27;;;;;;;;;;5048108;28;20049;-69
2022/12/15 02:15:20;;;;;;;31.52;18.27;;;;;;;;;;5044458;28;20499;-69
2022/12/15 02:17:53;;;;;;;33.83;17.52;;;;;;;;;;5048390;28;20049;-69
2022/12/15 02:20:38;;;;;;;30.70;17.52;;;;;;;;;;5047648;28;20123;-70
2022/12/15 02:23:24;;;;;;;34.17;18.95;;;;;;;;;;5041198;28;20045;-70
2022/12/15 02:26:09;;;;;;;31.63;17.52;;;;;;;;;;5019273;28;20038;-70
2022/12/15 02:28:38;;;;;;;30.70;18.15;;;;;;;;;;5045963;28;20052;-69
2022/12/15 02:33:56;;;;;;;30.45;17.92;;;;;;;;;;5041780;28;20045;-71
2022/12/15 02:36:28;;;;;;;31.10;18.30;;;;;;;;;;5046087;28;20045;-69
2022/12/15 02:38:54;;;;;;;33.33;18.63;;;;;;;;;;5044280;28;20053;-71
2022/12/15 02:41:32;;;;;;;31.23;18.17;;;;;;;;;;5040838;28;20049;-71
2022/12/15 02:43:59;;;;;;;29.63;17.88;;;;;;;;;;5044187;28;20076;-71
2022/12/15 02:46:31;;;;;;;31.58;18.23;;;;;;;;;;5044479;28;20052;-71
2022/12/15 02:49:16;;;;;;;26.85;17.23;;;;;;;;;;5045615;28;20041;-71
2022/12/15 02:51:42;;;;;;;31.33;17.88;;;;;;;;;;5042002;28;20114;-71
2022/12/15 02:54:14;;;;;;;29.83;18.50;;;;;;;;;;5045948;28;20365;-71
2022/12/15 02:56:52;;;;;;;31.60;17.60;;;;;;;;;;5034870;28;20041;-71
2022/12/15 02:59:54;;;;;;;32.63;17.50;;;;;;;;;;5047240;28;20041;-70
2022/12/15 03:02:20;;;;;;;30.88;18.27;;;;;;;;;;5039025;28;20044;-69
2022/12/15 03:04:46;;;;;;;30.90;19.02;;;;;;;;;;5039565;28;20052;-69
2022/12/15 03:07:13;;;;;;;31.48;18.42;;;;;;;;;;5045944;28;20049;-72
2022/12/15 03:09:39;;;;;;;31.40;18.35;;;;;;;;;;5034213;28;20102;-72
2022/12/15 03:12:05;;;;;;;30.35;18.38;;;;;;;;;;5044910;28;20049;-72
2022/12/15 03:14:31;;;;;;;32.13;18.90;;;;;;;;;;5047518;28;20411;-69
2022/12/15 03:16:57;;;;;;;29.65;18.02;;;;;;;;;;5045500;28;20071;-69
2022/12/15 03:19:24;;;;;;;31.75;18.00;;;;;;;;;;5048284;28;20083;-69
2022/12/15 03:21:51;;;;;;;30.38;18.45;;;;;;;;;;5040203;28;20526;-69
2022/12/15 03:24:17;;;;;;;30.20;18.33;;;;;;;;;;5041637;28;20126;-72
2022/12/15 03:26:43;;;;;;;28.90;18.33;;;;;;;;;;5045247;28;20045;-72
2022/12/15 03:29:09;;;;;;;32.15;18.30;;;;;;;;;;5041169;28;20040;-72
2022/12/15 03:31:35;;;;;;;29.00;17.77;;;;;;;;;;5047539;28;20080;-70
2022/12/15 03:34:01;;;;;;;32.10;17.35;;;;;;;;;;5047014;28;20057;-70
2022/12/15 03:36:27;;;;;;;28.75;17.20;;;;;;;;;;5043471;28;20186;-69
2022/12/15 03:38:53;;;;;;;31.20;18.58;;;;;;;;;;5048660;28;20151;-69
2022/12/15 03:41:19;;;;;;;28.00;17.58;;;;;;;;;;5047261;28;20041;-69
2022/12/15 03:43:45;;;;;;;26.75;17.27;;;;;;;;;;5047071;28;20041;-69
2022/12/15 03:46:11;;;;;;;25.38;16.33;;;;;;;;;;5027871;28;21870;-73
2022/12/15 03:48:37;;;;;;;32.95;17.48;;;;;;;;;;5043141;28;20077;-69
2022/12/15 03:51:03;;;;;;;29.23;17.80;;;;;;;;;;5051634;28;20051;-70
2022/12/15 03:53:29;;;;;;;29.40;16.85;;;;;;;;;;5051624;28;20037;-69
2022/12/15 03:55:55;;;;;;;29.83;16.92;;;;;;;;;;5037099;28;20049;-71
2022/12/15 03:58:21;;;;;;;31.52;17.73;;;;;;;;;;5029490;28;20045;-69
2022/12/15 04:00:47;;;;;;;31.30;16.48;;;;;;;;;;5050061;28;20075;-69
2022/12/15 04:03:13;;;;;;;29.67;16.55;;;;;;;;;;5045021;28;20048;-69
2022/12/15 04:05:39;;;;;;;26.60;16.60;;;;;;;;;;5047631;28;20142;-69
2022/12/15 04:08:06;;;;;;;26.15;16.02;;;;;;;;;;5045334;28;20086;-73
2022/12/15 04:10:33;;;;;;;31.05;17.10;;;;;;;;;;5049987;28;20076;-71
2022/12/15 04:12:59;;;;;;;26.27;17.00;;;;;;;;;;5049812;28;20060;-71
2022/12/15 04:15:26;;;;;;;27.08;15.60;;;;;;;;;;5050235;28;20063;-71
2022/12/15 04:17:52;;;;;;;31.08;16.23;;;;;;;;;;5049456;28;20052;-70
2022/12/15 04:20:18;;;;;;;29.10;15.85;;;;;;;;;;5049599;28;20412;-72
2022/12/15 04:22:45;;;;;;;31.17;16.25;;;;;;;;;;5050120;28;20048;-72
2022/12/15 05:34:00;;;;;;;26.27;15.55;;;;;;;;;;5040801;28;20049;-73
2022/12/15 05:36:26;;;;;;;27.08;15.57;;;;;;;;;;5041983;28;20087;-72
2022/12/15 05:38:52;;;;;;;24.50;14.75;;;;;;;;;;5048535;28;20381;-72
2022/12/15 05:41:20;;;;;;;30.27;16.40;;;;;;;;;;5031502;28;20052;-72
2022/12/15 05:43:46;;;;;;;30.60;15.45;;;;;;;;;;5031225;28;20041;-71
2022/12/15 05:46:13;;;;;;;31.60;15.65;;;;;;;;;;5045236;28;20106;-71
2022/12/15 05:48:39;;;;;;;25.75;14.32;;;;;;;;;;5046288;28;20496;-72
2022/12/15 05:51:07;;;;;;;23.83;15.07;;;;;;;;;;5045916;28;20076;-70
2022/12/15 05:53:33;;;;;;;23.13;14.93;;;;;;;;;;5050218;28;20122;-71
2022/12/15 05:56:07;;;;;;;25.75;14.90;;;;;;;;;;5031910;28;20048;-72
2022/12/15 05:58:33;;;;;;;21.67;14.20;;;;;;;;;;5030044;28;20049;-71
2022/12/15 06:01:05;;;;;;;26.42;14.88;;;;;;;;;;5041805;28;20043;-71
2022/12/15 06:03:31;;;;;;;28.63;15.18;;;;;;;;;;5047745;28;20045;-71
2022/12/15 06:05:59;;;;;;;27.77;15.07;;;;;;;;;;5043109;28;20040;-69
2022/12/15 06:08:25;;;;;;;26.42;15.35;;;;;;;;;;5031024;28;20040;-71
2022/12/15 06:10:54;;;;;;;26.48;15.30;;;;;;;;;;5046995;28;20068;-70
2022/12/15 06:13:21;;;;;;;26.75;15.77;;;;;;;;;;5047925;28;20056;-69
2022/12/15 06:15:56;;;;;;;25.60;15.43;;;;;;;;;;5021587;28;20045;-70
2022/12/15 06:18:23;;;;;;;24.10;14.70;;;;;;;;;;5044763;28;20064;-71
2022/12/15 06:20:49;;;;;;;24.90;14.82;;;;;;;;;;5044207;28;20420;-70
2022/12/15 06:23:15;;;;;;;28.63;14.88;;;;;;;;;;5046925;28;20155;-73
2022/12/15 06:25:41;;;;;;;23.77;14.27;;;;;;;;;;5045587;28;20052;-70
2022/12/15 06:28:07;;;;;;;24.40;13.95;;;;;;;;;;5047118;28;20045;-71
2022/12/15 06:30:33;;;;;;;27.80;14.85;;;;;;;;;;5044636;28;20135;-72
2022/12/15 06:32:59;;;;;;;21.17;14.13;;;;;;;;;;5048135;28;20049;-70
2022/12/15 06:35:25;;;;;;;25.40;14.27;;;;;;;;;;5039942;28;20397;-70
2022/12/15 06:37:51;;;;;;;24.52;15.93;;;;;;;;;;5044559;28;20144;-71
2022/12/15 06:40:17;;;;;;;28.00;14.57;;;;;;;;;;5037702;28;20393;-71
2022/12/15 06:42:43;;;;;;;25.88;14.90;;;;;;;;;;5040539;28;20052;-71
2022/12/15 06:45:09;;;;;;;25.88;14.50;;;;;;;;;;5035830;28;20042;-73
2022/12/15 06:47:35;;;;;;;27.02;14.55;;;;;;;;;;5050114;28;20044;-70
2022/12/15 06:50:01;;;;;;;26.77;14.25;;;;;;;;;;5024224;28;20056;-72
2022/12/15 06:52:27;;;;;;;26.42;15.38;;;;;;;;;;5039672;28;20045;-73
2022/12/15 06:54:54;;;;;;;27.15;14.88;;;;;;;;;;5034365;28;20493;-75
2022/12/15 06:57:20;;;;;;;24.95;14.63;;;;;;;;;;5029439;28;20077;-74
2022/12/15 06:59:46;;;;;;;27.88;14.52;;;;;;;;;;5030333;28;20052;-72
2022/12/15 07:02:21;;;;;;;27.90;15.27;;;;;;;;;;5018215;28;20037;-75
2022/12/15 07:04:47;;;;;;;27.48;15.18;;;;;;;;;;5031474;28;20055;-70
2022/12/15 07:07:13;;;;;;;22.25;14.10;;;;;;;;;;5035455;28;20126;-70
2022/12/15 07:09:39;;;;;;;25.20;14.90;;;;;;;;;;5024532;28;20041;-71
2022/12/15 07:12:06;;;;;;;27.15;15.57;;;;;;;;;;5044604;28;20076;-71
2022/12/15 07:14:32;;;;;;;26.33;15.57;;;;;;;;;;5040707;28;20056;-72
2022/12/15 07:16:58;;;;;;;29.88;16.05;;;;;;;;;;5044093;28;20041;-72
2022/12/15 07:19:25;;;;;;;26.70;15.65;;;;;;;;;;5046644;28;20423;-73
2022/12/15 07:21:51;;;;;;;28.35;15.38;;;;;;;;;;5046744;28;20044;-71
2022/12/15 07:24:17;;;;;;;27.63;15.93;;;;;;;;;;5046488;28;20052;-70
2022/12/15 07:26:44;;;;;;;28.45;15.68;;;;;;;;;;5044047;28;20180;-73
2022/12/15 07:29:11;;;;;;;26.88;15.35;;;;;;;;;;5041982;28;20065;-72
2022/12/15 07:31:37;;;;;;;28.45;15.90;;;;;;;;;;5047452;28;20167;-72
2022/12/15 07:34:03;;;;;;;23.58;14.88;;;;;;;;;;5046558;28;20075;-72
2022/12/15 07:36:29;;;;;;;25.08;15.40;;;;;;;;;;5042894;28;20051;-71
2022/12/15 07:39:01;;;;;;;27.17;15.40;;;;;;;;;;5035283;28;20063;-70
2022/12/15 07:41:28;;;;;;;27.88;15.13;;;;;;;;;;5044809;28;20049;-69
2022/12/15 07:43:55;;;;;;;30.67;15.23;;;;;;;;;;5051777;28;20122;-69
2022/12/15 07:46:21;;;;;;;30.58;15.27;;;;;;;;;;5051398;28;20037;-68
2022/12/15 07:48:47;;;;;;;26.15;15.00;;;;;;;;;;5045489;28;20053;-68
2022/12/15 07:51:13;;;;;;;30.20;16.00;;;;;;;;;;5047928;28;20488;-70
2022/12/15 07:53:39;;;;;;;27.80;15.98;;;;;;;;;;5042419;28;20045;-69
2022/12/15 07:56:06;;;;;;;27.50;15.95;;;;;;;;;;5043152;28;20506;-69
2022/12/15 07:58:32;;;;;;;26.45;16.10;;;;;;;;;;5047686;28;20167;-69
2022/12/15 08:00:59;;;;;;;29.88;15.85;;;;;;;;;;5040446;28;20050;-69
2022/12/15 08:03:25;;;;;;;24.45;15.52;;;;;;;;;;5049789;28;20144;-69
2022/12/15 08:05:52;;;;;;;23.83;14.40;;;;;;;;;;5039939;28;20056;-70
2022/12/15 08:08:19;;;;;;;28.85;14.80;;;;;;;;;;5048352;28;20049;-70
2022/12/15 08:10:45;;;;;;;25.33;15.48;;;;;;;;;;5049046;28;20502;-70
2022/12/15 08:13:12;;;;;;;24.88;14.85;;;;;;;;;;5049527;28;20060;-70
2022/12/15 08:15:38;;;;;;;25.08;15.35;;;;;;;;;;5035661;28;20657;-70
2022/12/15 08:18:05;;;;;;;25.67;15.38;;;;;;;;;;5048827;28;20049;-71
2022/12/15 08:20:31;;;;;;;24.10;15.05;;;;;;;;;;5042159;28;20073;-69
2022/12/15 08:22:57;;;;;;;23.05;14.93;;;;;;;;;;5043738;28;20040;-70
2022/12/15 08:25:24;;;;;;;25.58;14.38;;;;;;;;;;5049551;28;20044;-71
2022/12/15 08:27:51;;;;;;;26.58;15.52;;;;;;;;;;5038807;28;21014;-71
2022/12/15 08:30:17;;;;;;;24.08;14.90;;;;;;;;;;5045079;28;20103;-70
2022/12/15 08:32:43;;;;;;;24.35;15.23;;;;;;;;;;5039193;28;20053;-71
2022/12/15 08:35:09;;;;;;;27.48;15.40;;;;;;;;;;5046453;28;20045;-70
2022/12/15 08:37:35;;;;;;;24.05;15.18;;;;;;;;;;5045963;28;20049;-70
2022/12/15 08:40:02;;;;;;;25.55;15.45;;;;;;;;;;5049998;28;20144;-70
2022/12/15 08:42:32;;;;;;;25.75;15.88;;;;;;;;;;5043771;28;20174;-71
2022/12/15 08:44:58;;;;;;;25.17;16.23;;;;;;;;;;5047514;28;20049;-69
2022/12/15 08:47:24;;;;;;;26.85;16.33;;;;;;;;;;5043503;28;20041;-69
2022/12/15 08:49:51;;;;;;;29.38;15.95;;;;;;;;;;5045663;28;20123;-69
2022/12/15 08:52:18;;;;;;;25.58;15.75;;;;;;;;;;5045498;28;20413;-70
2022/12/15 08:54:43;;;;;;;28.30;16.52;;;;;;;;;;5048660;28;20215;-70
2022/12/15 08:57:10;;;;;;;30.67;15.85;;;;;;;;;;5049029;28;20688;-70
2022/12/15 08:59:36;;;;;;;25.05;15.48;;;;;;;;;;5049597;28;20455;-71
2022/12/15 09:02:02;;;;;;;27.52;16.05;;;;;;;;;;5040239;28;20124;-71
2022/12/15 09:04:28;;;;;;;24.60;16.33;;;;;;;;;;5047413;28;20037;-71
2022/12/15 09:06:54;;;;;;;27.65;17.38;;;;;;;;;;5045907;28;20108;-70
2022/12/15 09:09:20;;;;;;;25.58;16.13;;;;;;;;;;5046931;28;20534;-71
2022/12/15 09:11:47;;;;;;;28.10;16.25;;;;;;;;;;5050337;28;20044;-71
2022/12/15 09:14:13;;;;;;;26.58;16.67;;;;;;;;;;5048146;28;20076;-71
2022/12/15 09:16:39;;;;;;;26.35;16.63;;;;;;;;;;5039701;28;20049;-71
2022/12/15 09:19:07;;;;;;;29.27;18.27;;;;;;;;;;5043895;28;20384;-71
2022/12/15 09:21:33;;;;;;;27.05;16.20;;;;;;;;;;5043054;28;21054;-71
2022/12/15 09:24:00;;;;;;;24.48;15.73;;;;;;;;;;5050577;28;20045;-71
2022/12/15 09:26:27;;;;;;;25.60;15.50;;;;;;;;;;5048313;28;20098;-70
2022/12/15 09:28:54;;;;;;;26.00;16.38;;;;;;;;;;5034010;28;20052;-71
2022/12/15 09:31:21;;;;;;;28.75;16.17;;;;;;;;;;5050548;28;20049;-71
2022/12/15 09:33:47;;;;;;;27.88;16.05;;;;;;;;;;5049120;28;20045;-71
2022/12/15 09:36:14;;;;;;;28.02;15.40;;;;;;;;;;5049537;28;20053;-71
2022/12/15 09:38:40;;;;;;;26.02;15.95;;;;;;;;;;5048988;28;20424;-70
2022/12/15 09:41:13;;;;;;;26.70;15.85;;;;;;;;;;5049841;28;20068;-71
2022/12/15 09:43:39;;;;;;;;;;;;;;;;;;5039413;28;20040;-70
2022/12/15 09:46:11;;;;;;;25.55;15.95;;;;;;;;;;5044159;28;19917;-71
2022/12/15 09:48:43;;;;;;;28.13;16.25;;;;;;;;;;5041659;28;20407;-69
2022/12/15 09:51:12;;;;;;;27.37;16.00;;;;;;;;;;5048023;28;20045;-70
2022/12/15 09:53:38;;;;;;;29.45;17.10;;;;;;;;;;5025588;28;20303;-70
2022/12/15 09:56:12;;;;;;;27.85;16.73;;;;;;;;;;5039489;28;20045;-72
2022/12/15 09:58:47;;;;;;;25.13;16.67;;;;;;;;;;5045804;28;20045;-72
2022/12/15 10:01:20;;;;;;;26.27;16.88;;;;;;;;;;5040694;28;20053;-71
2022/12/15 10:03:55;;;;;;;28.13;15.85;;;;;;;;;;5045844;28;20565;-71
2022/12/15 10:06:25;;;;;;;26.92;15.98;;;;;;;;;;5042681;28;20071;-71
2022/12/15 10:08:55;;;;;;;23.92;15.98;;;;;;;;;;5040469;28;20048;-69
2022/12/15 10:11:25;;;;;;;28.42;16.77;;;;;;;;;;5049175;28;20047;-69
2022/12/15 10:14:05;;;;;;;28.52;16.33;;;;;;;;;;5032498;28;20053;-70
2022/12/15 10:16:53;;;;;;;25.58;15.85;;;;;;;;;;5041363;28;20040;-72
2022/12/15 10:19:23;;;;;;;25.83;15.88;;;;;;;;;;5047054;28;20048;-69
2022/12/15 10:21:49;;;;;;;23.88;14.68;;;;;;;;;;5041804;28;20071;-69
2022/12/15 10:24:17;;;;;;;24.35;15.32;;;;;;;;;;5042542;28;20053;-69
2022/12/15 10:26:47;;;;;;;32.33;16.88;;;;;;;;;;5030956;28;20573;-69
2022/12/15 10:29:16;;;;;;;25.98;15.25;;;;;;;;;;5046768;28;20070;-70
2022/12/15 10:31:49;;;;;;;25.30;16.15;;;;;;;;;;5044579;28;20041;-71
2022/12/15 10:34:36;;;;;;;26.50;14.73;;;;;;;;;;5047531;28;20048;-69
2022/12/15 10:37:03;;;;;;;24.02;15.80;;;;;;;;;;5040843;28;20040;-71
2022/12/15 10:39:37;;;;;;;27.45;15.55;;;;;;;;;;5048293;28;20400;-71
2022/12/15 10:42:38;;;;;;;21.65;15.10;;;;;;;;;;5043384;28;20053;-70
2022/12/15 10:45:24;;;;;;;25.20;15.63;;;;;;;;;;5030892;28;20501;-70
2022/12/15 10:48:05;;;;;;;27.02;15.60;;;;;;;;;;5048662;28;20045;-70
2022/12/15 10:50:31;;;;;;;22.60;14.82;;;;;;;;;;5027126;28;20128;-69
2022/12/15 10:52:57;;;;;;;24.50;14.70;;;;;;;;;;5048173;28;20045;-70
2022/12/15 10:55:36;;;;;;;23.17;13.88;;;;;;;;;;5047541;28;20073;-70
2022/12/15 10:58:03;;;;;;;27.08;16.60;;;;;;;;;;5051102;28;20124;-70
2022/12/15 11:00:30;;;;;;;23.45;15.60;;;;;;;;;;5048911;28;20045;-69
2022/12/15 11:02:57;;;;;;;21.85;14.90;;;;;;;;;;5047376;28;20496;-69
2022/12/15 11:05:23;;;;;;;23.00;14.77;;;;;;;;;;5035011;28;20057;-71
2022/12/15 11:07:53;;;;;;;23.77;15.98;;;;;;;;;;5048303;28;20381;-70
2022/12/15 11:10:19;;;;;;;21.17;14.18;;;;;;;;;;5049226;28;20124;-70
2022/12/15 11:12:54;;;;;;;19.17;14.13;;;;;;;;;;5050367;28;20179;-70
2022/12/15 11:15:23;;;;;;;23.60;14.75;;;;;;;;;;5051168;28;20045;-70
2022/12/15 11:17:55;;;;;;;23.38;13.90;;;;;;;;;;5048868;28;20053;-70
2022/12/15 11:20:27;;;;;;;20.33;13.23;;;;;;;;;;5043682;28;20128;-69
2022/12/15 11:22:56;;;;;;;20.65;12.60;;;;;;;;;;5048354;28;20601;-70
2022/12/15 11:25:33;;;;;;;16.80;11.57;;;;;;;;;;5043985;28;20076;-71
2022/12/15 11:28:00;;;;;;;19.05;12.38;;;;;;;;;;5046425;28;20055;-71
2022/12/15 11:30:29;;;;;;;19.48;12.40;;;;;;;;;;5051910;28;20045;-71
2022/12/15 11:32:57;;;;;;;17.73;12.07;;;;;;;;;;5051941;28;20503;-71
2022/12/15 11:35:43;;;;;;;18.50;12.30;;;;;;;;;;5052096;28;20052;-72
2022/12/15 11:38:19;;;;;;;19.55;12.93;;;;;;;;;;5030674;28;20049;-72
2022/12/15 11:40:45;;;;;;;22.80;12.80;;;;;;;;;;5046603;28;20064;-69
2022/12/15 11:43:25;;;;;;;18.25;11.40;;;;;;;;;;5051300;28;20132;-72
2022/12/15 11:46:10;;;;;;;17.70;10.90;;;;;;;;;;5048135;28;20138;-73
2022/12/15 11:48:55;;;;;;;18.75;10.85;;;;;;;;;;5053421;28;20049;-73
2022/12/15 11:51:24;;;;;;;16.10;11.73;;;;;;;;;;5039806;28;20072;-71
2022/12/15 11:54:06;;;;;;;19.27;12.55;;;;;;;;;;5044767;28;20053;-72
2022/12/15 11:56:32;;;;;;;20.63;11.85;;;;;;;;;;5045239;28;20099;-72
2022/12/15 11:59:16;;;;;;;16.10;10.57;;;;;;;;;;5051129;28;20036;-72
2022/12/15 12:01:45;;;;;;;16.63;11.10;;;;;;;;;;5049869;28;20048;-72
2022/12/15 12:04:14;;;;;;;20.45;10.20;;;;;;;;;;5045050;28;20048;-72
2022/12/15 12:07:03;;;;;;;15.32;10.43;;;;;;;;;;5052208;28;20063;-72
2022/12/15 12:09:35;;;;;;;15.88;10.27;;;;;;;;;;5051009;28;20049;-73
2022/12/15 12:12:07;;;;;;;14.23;9.57;;;;;;;;;;5044719;28;20068;-73
2022/12/15 12:14:39;;;;;;;13.75;9.50;;;;;;;;;;5051408;28;20340;-73
2022/12/15 12:17:05;;;;;;;15.20;9.90;;;;;;;;;;5048078;28;20072;-73
2022/12/15 12:19:33;;;;;;;15.55;9.75;;;;;;;;;;5051202;28;20044;-72
2022/12/15 12:22:25;;;;;;;18.67;9.60;;;;;;;;;;5049702;28;20033;-72
2022/12/15 12:24:56;;;;;;;15.45;9.95;;;;;;;;;;5026906;28;20117;-71
2022/12/15 12:27:41;;;;;;;15.60;9.50;;;;;;;;;;5050109;28;20033;-71
2022/12/15 12:30:18;;;;;;;14.57;9.98;;;;;;;;;;5031481;28;20045;-72
2022/12/15 12:32:50;;;;;;;18.90;9.75;;;;;;;;;;5048288;28;20078;-72
2022/12/15 12:35:19;;;;;;;14.40;9.48;;;;;;;;;;5043776;28;20046;-72
2022/12/15 12:37:48;;;;;;;14.55;10.13;;;;;;;;;;5051290;28;20047;-72
2022/12/15 12:40:41;;;;;;;13.70;9.43;;;;;;;;;;5051605;28;20071;-71
2022/12/15 12:43:08;;;;;;;18.75;10.63;;;;;;;;;;5046527;28;20090;-72
2022/12/15 12:45:34;;;;;;;16.23;10.50;;;;;;;;;;5044798;28;20069;-70
2022/12/15 12:48:02;;;;;;;16.73;10.90;;;;;;;;;;5045954;28;20087;-71
2022/12/15 12:50:29;;;;;;;17.35;10.45;;;;;;;;;;5045424;28;20044;-69
2022/12/15 12:52:56;;;;;;;19.15;11.50;;;;;;;;;;5044973;28;20401;-72
2022/12/15 12:55:27;;;;;;;18.58;11.52;;;;;;;;;;5018445;28;20045;-72
2022/12/15 12:57:54;;;;;;;17.30;11.10;;;;;;;;;;5039128;28;20041;-72
2022/12/15 13:00:23;;;;;;;17.50;11.15;;;;;;;;;;5048369;28;20048;-72
2022/12/15 13:02:52;;;;;;;15.20;10.88;;;;;;;;;;5049265;28;20623;-69
2022/12/15 13:05:30;;;;;;;17.98;11.07;;;;;;;;;;5047399;28;20041;-70
2022/12/15 13:08:16;;;;;;;18.95;10.80;;;;;;;;;;5050840;28;20056;-71
2022/12/15 13:10:43;;;;;;;15.20;10.13;;;;;;;;;;5041405;28;20393;-70
2022/12/15 13:13:18;;;;;;;19.23;10.27;;;;;;;;;;5048301;28;20127;-70
2022/12/15 13:15:46;;;;;;;12.88;9.18;;;;;;;;;;5050424;28;20073;-72
2022/12/15 13:18:23;;;;;;;17.38;9.27;;;;;;;;;;5034847;28;20049;-72
2022/12/15 13:20:50;;;;;;;15.27;8.93;;;;;;;;;;5042372;28;20041;-70
2022/12/15 13:23:17;;;;;;;12.98;8.77;;;;;;;;;;5048532;28;20438;-71
2022/12/15 13:25:44;;;;;;;16.27;9.30;;;;;;;;;;5044941;28;20096;-69
2022/12/15 13:28:22;;;;;;;14.52;8.80;;;;;;;;;;5048868;28;20053;-71
2022/12/15 13:31:07;;;;;;;14.82;9.00;;;;;;;;;;5045219;28;20100;-70
2022/12/15 13:33:33;;;;;;;15.00;9.20;;;;;;;;;;5048655;28;20061;-72
2022/12/15 13:36:00;;;;;;;14.90;8.73;;;;;;;;;;5049781;28;20045;-69
2022/12/15 13:38:46;;;;;;;16.77;9.35;;;;;;;;;;5048794;28;20527;-71
2022/12/15 13:41:25;;;;;;;15.13;9.43;;;;;;;;;;5028967;28;20049;-71
2022/12/15 13:43:53;;;;;;;17.52;9.43;;;;;;;;;;5045896;28;20132;-70
2022/12/15 13:46:24;;;;;;;15.00;9.48;;;;;;;;;;5048065;28;20064;-71
2022/12/15 13:49:03;;;;;;;15.60;9.40;;;;;;;;;;5045843;28;20045;-71
2022/12/15 13:51:41;;;;;;;14.05;10.15;;;;;;;;;;5048559;28;20706;-69
2022/12/15 13:54:08;;;;;;;17.33;11.10;;;;;;;;;;5043994;28;20087;-68
2022/12/15 13:56:45;;;;;;;14.70;10.50;;;;;;;;;;5046648;28;20045;-70
2022/12/15 13:59:25;;;;;;;17.30;11.10;;;;;;;;;;5045644;28;20136;-71
2022/12/15 14:01:52;;;;;;;15.18;10.75;;;;;;;;;;5037132;28;20152;-70
2022/12/15 14:04:18;;;;;;;18.73;11.15;;;;;;;;;;5042926;28;20040;-71
2022/12/15 14:06:53;;;;;;;19.88;11.52;;;;;;;;;;5042048;28;20059;-72
2022/12/15 14:09:21;;;;;;;20.00;12.45;;;;;;;;;;5045202;28;20053;-71
2022/12/15 14:11:48;;;;;;;18.20;12.52;;;;;;;;;;5040750;28;20071;-71
2022/12/15 14:14:19;;;;;;;19.25;12.40;;;;;;;;;;5042583;28;20096;-71
2022/12/15 14:16:46;;;;;;;21.25;12.57;;;;;;;;;;5040461;28;20085;-70
2022/12/15 14:19:14;;;;;;;18.52;12.98;;;;;;;;;;5033575;28;20049;-71
2022/12/15 14:21:47;;;;;;;17.63;13.45;;;;;;;;;;5039869;28;20041;-71
2022/12/15 14:24:24;;;;;;;19.08;13.25;;;;;;;;;;5045743;28;20049;-70
2022/12/15 14:26:50;;;;;;;23.52;13.90;;;;;;;;;;5025993;28;20055;-71
2022/12/15 14:29:17;;;;;;;22.20;14.25;;;;;;;;;;5040799;28;20098;-72
2022/12/15 14:31:50;;;;;;;21.48;14.65;;;;;;;;;;5046080;28;20037;-72
2022/12/15 14:34:19;;;;;;;20.58;14.70;;;;;;;;;;5044204;28;20045;-72
2022/12/15 14:36:49;;;;;;;26.20;14.20;;;;;;;;;;5038285;28;20044;-72
2022/12/15 14:39:35;;;;;;;19.48;14.13;;;;;;;;;;5039398;28;20070;-71
2022/12/15 14:42:02;;;;;;;19.83;14.40;;;;;;;;;;5043002;28;20051;-71
2022/12/15 14:44:32;;;;;;;20.73;14.70;;;;;;;;;;5044991;28;20041;-70
2022/12/15 14:46:59;;;;;;;21.52;15.30;;;;;;;;;;5039640;28;20057;-71
2022/12/15 14:49:27;;;;;;;21.80;16.05;;;;;;;;;;5035677;28;20044;-70
2022/12/15 14:51:57;;;;;;;26.38;15.57;;;;;;;;;;5035437;28;20061;-71
2022/12/15 14:54:26;;;;;;;26.00;15.38;;;;;;;;;;5044855;28;20404;-69
2022/12/15 14:57:18;;;;;;;22.52;15.57;;;;;;;;;;5047224;28;20045;-68
2022/12/15 14:59:47;;;;;;;25.63;15.98;;;;;;;;;;5024989;28;20044;-69
2022/12/15 15:02:21;;;;;;;23.15;15.55;;;;;;;;;;5032039;28;20095;-71
2022/12/15 15:05:06;;;;;;;23.63;16.40;;;;;;;;;;5025495;28;20052;-71
2022/12/15 15:07:32;;;;;;;23.15;16.38;;;;;;;;;;5047184;28;20049;-71
2022/12/15 15:09:59;;;;;;;28.45;16.73;;;;;;;;;;5048303;28;20068;-69
2022/12/15 15:12:28;;;;;;;25.27;17.45;;;;;;;;;;5044161;28;20116;-69
2022/12/15 15:14:58;;;;;;;27.15;17.95;;;;;;;;;;5047605;28;20047;-69
2022/12/15 15:17:34;;;;;;;26.23;18.08;;;;;;;;;;5036442;28;20175;-71
2022/12/15 15:20:02;;;;;;;29.17;18.70;;;;;;;;;;5040009;28;20385;-72
2022/12/15 15:22:35;;;;;;;30.38;19.25;;;;;;;;;;5046552;28;20103;-72
2022/12/15 15:25:02;;;;;;;28.27;19.45;;;;;;;;;;5040757;28;20064;-70
2022/12/15 15:27:38;;;;;;;42.20;20.48;;;;;;;;;;5043491;28;20040;-71
2022/12/15 15:30:23;;;;;;;29.73;20.95;;;;;;;;;;5046294;28;20070;-71
2022/12/15 15:32:50;;;;;;;29.20;21.15;;;;;;;;;;5042752;28;20053;-71
2022/12/15 15:35:16;;;;;;;30.95;21.05;;;;;;;;;;5041792;28;20045;-70
2022/12/15 15:37:42;;;;;;;32.95;21.52;;;;;;;;;;5046690;28;20049;-69
2022/12/15 15:40:10;;;;;;;33.40;22.20;;;;;;;;;;5023850;28;20397;-69
2022/12/15 15:42:36;;;;;;;33.90;22.40;;;;;;;;;;5040651;28;20045;-71
2022/12/15 15:45:02;;;;;;;34.35;22.92;;;;;;;;;;5032480;28;20132;-70
2022/12/15 15:47:28;;;;;;;35.60;22.70;;;;;;;;;;5045959;28;20301;-70
2022/12/15 15:49:55;;;;;;;33.13;23.60;;;;;;;;;;5030604;28;20040;-70
2022/12/15 15:52:21;;;;;;;35.28;24.02;;;;;;;;;;5050325;28;20072;-70
2022/12/15 15:54:47;;;;;;;37.50;23.77;;;;;;;;;;5048517;28;20512;-69
2022/12/15 15:57:14;;;;;;;36.55;24.83;;;;;;;;;;5050946;28;20053;-71
2022/12/15 15:59:42;;;;;;;33.42;23.92;;;;;;;;;;5045339;28;20466;-70
2022/12/15 16:02:09;;;;;;;34.03;23.23;;;;;;;;;;5045644;28;20049;-70
2022/12/15 16:04:36;;;;;;;35.67;24.00;;;;;;;;;;5046600;28;20048;-70
2022/12/15 16:07:03;;;;;;;36.15;24.40;;;;;;;;;;5047276;28;20084;-68
2022/12/15 16:09:29;;;;;;;35.53;22.77;;;;;;;;;;5029308;28;20403;-70
2022/12/15 16:11:55;;;;;;;32.00;23.42;;;;;;;;;;5042080;28;20061;-69
2022/12/15 16:14:21;;;;;;;34.47;24.25;;;;;;;;;;5041478;28;20099;-70
2022/12/15 16:16:47;;;;;;;36.20;24.83;;;;;;;;;;5040836;28;20058;-70
2022/12/15 16:19:13;;;;;;;39.67;24.88;;;;;;;;;;5041510;28;20056;-70
2022/12/15 16:21:40;;;;;;;36.70;24.08;;;;;;;;;;5050803;28;20063;-71
2022/12/15 16:24:16;;;;;;;35.35;23.95;;;;;;;;;;5038516;28;20049;-70
2022/12/15 16:26:47;;;;;;;37.15;24.20;;;;;;;;;;5046908;28;20048;-70
2022/12/15 16:29:17;;;;;;;40.05;24.65;;;;;;;;;;5042009;28;20128;-70
2022/12/15 16:31:44;;;;;;;37.53;24.98;;;;;;;;;;5047952;28;20049;-68
2022/12/15 16:34:11;;;;;;;37.65;24.45;;;;;;;;;;5042629;28;20056;-70
2022/12/15 16:36:38;;;;;;;36.60;24.33;;;;;;;;;;5042721;28;20041;-70
2022/12/15 16:39:04;;;;;;;41.45;26.60;;;;;;;;;;5048434;28;20676;-69
2022/12/15 16:41:30;;;;;;;36.08;24.60;;;;;;;;;;5048890;28;20075;-69
2022/12/15 16:43:57;;;;;;;39.13;25.00;;;;;;;;;;5048152;28;20519;-69
2022/12/15 16:46:23;;;;;;;38.40;25.38;;;;;;;;;;5043917;28;20622;-68
2022/12/15 16:48:49;;;;;;;39.10;27.20;;;;;;;;;;5039595;28;20116;-67
2022/12/15 16:51:26;;;;;;;41.20;26.77;;;;;;;;;;5043696;28;20423;-67
2022/12/15 16:53:52;;;;;;;41.05;26.38;;;;;;;;;;5047279;28;20064;-69